Time;durP1;ratioP1;P1;durP2;ratioP2;P2;SDS_P1;SDS_P2;PMS_P1;PMS_P2;Temp;Humidity;BMP_temperature;BMP_pressure;BME280_temperature;BME280_humidity;BME280_pressure;Samples;Min_cycle;Max_cycle;Signal;HPM_P1;HPM_P2
2022/10/09 00:01:09;;;;;;;10.90;2.13;;;9.30;99.90;;;;;;5154102;27;20549;-81
2022/10/09 00:03:37;;;;;;;10.57;2.90;;;9.30;99.90;;;;;;5135376;27;20461;-81
2022/10/09 00:06:04;;;;;;;8.85;2.42;;;9.30;99.90;;;;;;5118231;27;20050;-81
2022/10/09 00:08:30;;;;;;;14.95;2.90;;;9.30;99.90;;;;;;5153932;27;20152;-81
2022/10/09 00:10:56;;;;;;;9.63;3.10;;;9.30;99.90;;;;;;5153785;27;20092;-81
2022/10/09 00:13:23;;;;;;;13.00;2.88;;;9.20;99.90;;;;;;5153962;27;20043;-81
2022/10/09 00:15:48;;;;;;;14.20;3.55;;;9.20;99.90;;;;;;5153970;27;20413;-81
2022/10/09 00:18:16;;;;;;;10.30;3.63;;;9.20;99.90;;;;;;5135020;27;20050;-80
2022/10/09 00:20:44;;;;;;;10.07;2.80;;;9.20;99.90;;;;;;5153642;27;20042;-81
2022/10/09 00:23:16;;;;;;;12.05;2.88;;;9.20;99.90;;;;;;5135417;27;20128;-81
2022/10/09 00:25:57;;;;;;;13.88;4.00;;;9.20;99.90;;;;;;5118589;27;20338;-80
2022/10/09 00:28:25;;;;;;;12.95;3.90;;;9.20;99.90;;;;;;5135179;27;20053;-81
2022/10/09 00:30:51;;;;;;;12.43;3.45;;;9.20;99.90;;;;;;5135514;27;20046;-81
2022/10/09 00:33:18;;;;;;;7.07;2.83;;;9.20;99.90;;;;;;5154141;27;20053;-80
2022/10/09 00:35:44;;;;;;;11.90;3.47;;;9.20;99.90;;;;;;5134559;27;20043;-81
2022/10/09 00:38:11;;;;;;;11.57;3.65;;;9.20;99.90;;;;;;5134175;27;20057;-81
2022/10/09 00:40:38;;;;;;;13.20;3.25;;;9.20;99.90;;;;;;5153446;27;20081;-80
2022/10/09 00:43:16;;;;;;;11.95;3.17;;;9.10;99.90;;;;;;5134917;27;20038;-80
2022/10/09 00:45:54;;;;;;;17.88;3.63;;;9.10;99.90;;;;;;5153254;27;20133;-80
2022/10/09 00:48:22;;;;;;;16.17;3.30;;;9.10;99.90;;;;;;5153086;27;20043;-79
2022/10/09 00:50:57;;;;;;;11.80;3.92;;;9.20;99.90;;;;;;5134357;27;20181;-80
2022/10/09 00:53:25;;;;;;;9.70;2.97;;;9.10;99.90;;;;;;5153423;27;20409;-79
2022/10/09 00:55:52;;;;;;;11.93;3.55;;;9.10;99.90;;;;;;5152921;27;20463;-79
2022/10/09 00:58:18;;;;;;;9.90;3.25;;;9.10;99.90;;;;;;5116850;27;20061;-79
2022/10/09 01:00:45;;;;;;;13.27;3.05;;;9.10;99.90;;;;;;5151670;27;20050;-79
2022/10/09 01:03:10;;;;;;;10.82;2.60;;;9.10;99.90;;;;;;5134176;27;20098;-80
2022/10/09 01:05:55;;;;;;;15.00;3.10;;;9.00;99.90;;;;;;5134383;27;20051;-80
2022/10/09 01:08:29;;;;;;;11.25;2.70;;;9.00;99.90;;;;;;5134189;27;20054;-80
2022/10/09 01:11:34;;;;;;;15.88;3.38;;;8.90;99.90;;;;;;5152075;27;20099;-79
2022/10/09 01:14:15;;;;;;;14.07;2.90;;;8.90;99.90;;;;;;5044628;27;20056;-79
2022/10/09 01:16:50;;;;;;;13.52;2.95;;;8.80;99.90;;;;;;5117056;27;20089;-79
2022/10/09 01:19:43;;;;;;;9.55;2.90;;;8.80;99.90;;;;;;5134287;27;20505;-79
2022/10/09 01:22:18;;;;;;;14.18;3.38;;;8.80;99.90;;;;;;5133975;27;20042;-79
2022/10/09 01:24:52;;;;;;;9.05;2.53;;;8.80;99.90;;;;;;5134467;27;20046;-79
2022/10/09 01:27:26;;;;;;;10.80;2.50;;;8.80;99.90;;;;;;5117249;27;20191;-79
2022/10/09 01:30:01;;;;;;;10.70;2.75;;;8.80;99.90;;;;;;5133851;27;20489;-79
2022/10/09 01:32:32;;;;;;;8.52;2.63;;;8.80;99.90;;;;;;5133675;27;20053;-79
2022/10/09 01:34:59;;;;;;;14.15;2.92;;;8.80;99.90;;;;;;5152867;27;20084;-79
2022/10/09 01:37:27;;;;;;;11.55;2.75;;;8.70;99.90;;;;;;5152225;27;20046;-79
2022/10/09 01:39:54;;;;;;;11.57;2.80;;;8.70;99.90;;;;;;5152494;27;20069;-78
2022/10/09 01:42:23;;;;;;;9.15;3.03;;;8.70;99.90;;;;;;5152982;27;20367;-79
2022/10/09 01:44:49;;;;;;;11.25;2.55;;;8.70;99.90;;;;;;5152607;27;20494;-80
2022/10/09 01:47:18;;;;;;;13.35;2.97;;;8.70;99.90;;;;;;5152503;27;20050;-80
2022/10/09 01:49:46;;;;;;;8.20;2.50;;;8.70;99.90;;;;;;5152649;27;20051;-79
2022/10/09 01:52:33;;;;;;;9.25;2.88;;;8.70;99.90;;;;;;5152782;27;20053;-79
2022/10/09 01:55:31;;;;;;;9.57;2.85;;;8.70;99.90;;;;;;5134019;27;20455;-79
2022/10/09 01:58:10;;;;;;;11.18;2.92;;;8.70;99.90;;;;;;5152393;27;20445;-81
2022/10/09 02:00:40;;;;;;;16.33;3.85;;;8.70;99.90;;;;;;5152390;27;20053;-80
2022/10/09 02:03:10;;;;;;;12.98;2.70;;;8.70;99.90;;;;;;5133827;27;20449;-79
2022/10/09 02:05:38;;;;;;;13.48;3.08;;;8.60;99.90;;;;;;5133491;27;20486;-79
2022/10/09 02:08:04;;;;;;;10.68;2.30;;;8.60;99.90;;;;;;5133554;27;20072;-79
2022/10/09 02:10:33;;;;;;;14.52;3.25;;;8.60;99.90;;;;;;5133810;27;20054;-79
2022/10/09 02:13:00;;;;;;;9.95;2.90;;;8.60;99.90;;;;;;5152252;27;20058;-79
2022/10/09 02:15:49;;;;;;;11.45;2.83;;;8.60;99.90;;;;;;5133570;27;20555;-80
2022/10/09 02:18:32;;;;;;;13.52;3.95;;;8.60;99.90;;;;;;5133477;27;20042;-80
2022/10/09 02:21:07;;;;;;;11.32;2.50;;;8.60;99.90;;;;;;5134960;27;20110;-82
2022/10/09 02:23:35;;;;;;;11.82;2.97;;;8.70;99.90;;;;;;5120404;27;20508;-82
2022/10/09 02:26:01;;;;;;;10.02;2.65;;;8.70;99.90;;;;;;5137560;27;20046;-79
2022/10/09 02:28:27;;;;;;;9.40;2.17;;;8.60;99.90;;;;;;5137246;27;20042;-81
2022/10/09 02:31:05;;;;;;;12.30;2.65;;;8.60;99.90;;;;;;5137132;27;20581;-79
2022/10/09 02:33:33;;;;;;;9.02;2.63;;;8.60;99.90;;;;;;5154975;27;20390;-79
2022/10/09 02:36:00;;;;;;;7.07;2.47;;;8.50;99.90;;;;;;5155909;27;20054;-79
2022/10/09 02:38:26;;;;;;;11.10;2.30;;;8.50;99.90;;;;;;5155098;27;20057;-79
2022/10/09 02:40:56;;;;;;;10.73;2.38;;;8.50;99.90;;;;;;5136888;27;20058;-81
2022/10/09 02:43:22;;;;;;;7.78;2.63;;;8.50;99.90;;;;;;5155278;27;20051;-81
2022/10/09 02:45:48;;;;;;;8.75;1.92;;;8.40;99.90;;;;;;5153832;27;20051;-82
2022/10/09 02:48:14;;;;;;;7.63;2.45;;;8.40;99.90;;;;;;5136442;27;20046;-79
2022/10/09 02:50:40;;;;;;;12.68;2.33;;;8.40;99.90;;;;;;5155495;27;20103;-80
2022/10/09 02:53:06;;;;;;;9.80;2.72;;;8.40;99.90;;;;;;5136586;27;20517;-79
2022/10/09 02:55:32;;;;;;;9.50;2.08;;;8.30;99.90;;;;;;5136622;27;20062;-79
2022/10/09 02:57:58;;;;;;;13.15;3.45;;;8.30;99.90;;;;;;5119094;27;20078;-79
2022/10/09 03:00:24;;;;;;;11.30;2.83;;;8.30;99.90;;;;;;5119074;27;20065;-79
2022/10/09 03:02:49;;;;;;;11.50;2.55;;;8.30;99.90;;;;;;5136481;27;20042;-79
2022/10/09 03:05:15;;;;;;;10.85;2.72;;;8.30;99.90;;;;;;5136509;27;20066;-80
2022/10/09 03:07:49;;;;;;;10.65;3.22;;;8.30;99.90;;;;;;5136601;27;20050;-79
2022/10/09 03:10:14;;;;;;;8.15;2.95;;;8.30;99.90;;;;;;5155093;27;20073;-79
2022/10/09 03:12:40;;;;;;;14.45;3.17;;;8.30;99.90;;;;;;5156289;27;20051;-79
2022/10/09 03:15:07;;;;;;;9.63;2.95;;;8.30;99.90;;;;;;5156457;27;20046;-79
2022/10/09 03:17:33;;;;;;;15.45;3.30;;;8.30;99.90;;;;;;5157210;27;20059;-79
2022/10/09 03:19:59;;;;;;;11.57;3.75;;;8.20;99.90;;;;;;5156787;27;20249;-79
2022/10/09 03:22:25;;;;;;;7.85;2.85;;;8.30;99.90;;;;;;5157486;27;20039;-79
2022/10/09 03:24:50;;;;;;;11.18;3.60;;;8.20;99.90;;;;;;5156722;27;20564;-80
2022/10/09 03:27:16;;;;;;;11.15;3.22;;;8.20;99.90;;;;;;5136190;27;20060;-79
2022/10/09 03:29:42;;;;;;;11.57;2.63;;;8.20;99.90;;;;;;5119705;27;20085;-80
2022/10/09 03:32:08;;;;;;;9.15;3.08;;;8.10;99.90;;;;;;5135275;27;20052;-79
2022/10/09 03:34:34;;;;;;;21.38;4.05;;;8.10;99.90;;;;;;5154306;27;20505;-79
2022/10/09 03:37:00;;;;;;;8.05;2.30;;;8.10;99.90;;;;;;5135035;27;20054;-79
2022/10/09 03:39:25;;;;;;;15.07;3.70;;;8.10;99.90;;;;;;5154320;27;20046;-79
2022/10/09 03:41:51;;;;;;;14.15;3.67;;;8.10;99.90;;;;;;5135880;27;20047;-79
2022/10/09 03:44:17;;;;;;;13.55;3.33;;;8.10;99.90;;;;;;5154410;27;20397;-80
2022/10/09 03:46:43;;;;;;;12.30;3.00;;;8.10;99.90;;;;;;5153506;27;20057;-80
2022/10/09 03:49:08;;;;;;;10.73;3.00;;;8.10;99.90;;;;;;5154252;27;20103;-80
2022/10/09 03:51:34;;;;;;;9.77;3.22;;;8.10;99.90;;;;;;5153926;27;20490;-79
2022/10/09 03:54:00;;;;;;;13.52;3.60;;;8.10;99.90;;;;;;5154267;27;20091;-80
2022/10/09 03:56:26;;;;;;;13.68;4.00;;;8.00;99.90;;;;;;5118116;27;20481;-80
2022/10/09 03:58:52;;;;;;;9.75;3.20;;;8.10;99.90;;;;;;5153633;27;20050;-80
2022/10/09 04:01:18;;;;;;;13.05;3.47;;;8.10;99.90;;;;;;5153909;27;20171;-79
2022/10/09 04:03:44;;;;;;;10.95;4.32;;;8.00;99.90;;;;;;5135152;27;20054;-80
2022/10/09 04:06:10;;;;;;;16.88;4.60;;;8.10;99.90;;;;;;5135516;27;20084;-79
2022/10/09 04:08:35;;;;;;;11.85;5.60;;;8.10;99.90;;;;;;5135603;27;20065;-79
2022/10/09 04:11:02;;;;;;;17.17;5.18;;;8.10;99.90;;;;;;5134923;27;20042;-80
2022/10/09 04:13:28;;;;;;;19.45;4.90;;;8.10;99.90;;;;;;5135033;27;20043;-79
2022/10/09 04:15:55;;;;;;;14.50;5.50;;;8.20;99.90;;;;;;5135321;27;20046;-80
2022/10/09 04:18:21;;;;;;;15.27;5.38;;;8.20;99.90;;;;;;5134957;27;20051;-80
2022/10/09 04:20:55;;;;;;;15.02;5.35;;;8.20;99.90;;;;;;5134887;27;20053;-80
2022/10/09 04:23:24;;;;;;;16.65;5.93;;;8.20;99.90;;;;;;5135229;27;20095;-80
2022/10/09 04:25:55;;;;;;;16.85;5.43;;;8.20;99.90;;;;;;5153861;27;20443;-79
2022/10/09 04:28:22;;;;;;;13.57;4.53;;;8.20;99.90;;;;;;5135230;27;20066;-80
2022/10/09 04:30:48;;;;;;;20.08;6.43;;;8.20;99.90;;;;;;5153811;27;20046;-80
2022/10/09 04:33:14;;;;;;;11.68;4.43;;;8.20;99.90;;;;;;5153116;27;20186;-81
2022/10/09 04:35:44;;;;;;;13.65;5.22;;;8.20;99.90;;;;;;5134997;27;20043;-80
2022/10/09 04:38:10;;;;;;;13.23;4.95;;;8.30;99.90;;;;;;5153318;27;20173;-80
2022/10/09 04:40:37;;;;;;;18.33;5.43;;;8.30;99.90;;;;;;5134552;27;20046;-80
2022/10/09 04:43:03;;;;;;;15.60;5.38;;;8.30;99.90;;;;;;5134375;27;20062;-80
2022/10/09 04:45:29;;;;;;;11.00;4.97;;;8.20;99.90;;;;;;5134833;27;20058;-80
2022/10/09 04:47:54;;;;;;;18.30;6.78;;;8.20;99.90;;;;;;5134511;27;20039;-80
2022/10/09 04:50:20;;;;;;;18.45;7.18;;;8.10;99.90;;;;;;5152858;27;20486;-79
2022/10/09 04:52:46;;;;;;;16.58;7.55;;;8.20;99.90;;;;;;5134411;27;20054;-80
2022/10/09 04:55:12;;;;;;;19.85;7.82;;;8.20;99.90;;;;;;5152764;27;20050;-80
2022/10/09 04:57:38;;;;;;;20.63;8.77;;;8.10;99.90;;;;;;5133959;27;20090;-80
2022/10/09 05:00:04;;;;;;;25.33;8.55;;;8.10;99.90;;;;;;5133904;27;20054;-80
2022/10/09 05:02:30;;;;;;;18.95;7.95;;;8.10;99.90;;;;;;5133937;27;20522;-80
2022/10/09 05:04:56;;;;;;;19.10;7.72;;;8.10;99.90;;;;;;5152691;27;20112;-80
2022/10/09 05:07:23;;;;;;;15.45;7.85;;;8.00;99.90;;;;;;5152636;27;20483;-80
2022/10/09 05:09:49;;;;;;;22.42;9.10;;;8.00;99.90;;;;;;5152795;27;20074;-79
2022/10/09 05:12:15;;;;;;;17.33;8.77;;;8.00;99.90;;;;;;5152402;27;20514;-80
2022/10/09 05:14:41;;;;;;;28.48;10.57;;;8.00;99.90;;;;;;5134286;27;20141;-80
2022/10/09 05:17:06;;;;;;;20.30;10.43;;;8.00;99.90;;;;;;5152752;27;20046;-80
2022/10/09 05:19:32;;;;;;;22.42;10.48;;;8.00;99.90;;;;;;5153180;27;20130;-80
2022/10/09 05:21:59;;;;;;;17.95;9.27;;;8.00;99.90;;;;;;5153075;27;20061;-80
2022/10/09 05:24:26;;;;;;;23.83;11.45;;;8.00;99.90;;;;;;5151003;27;20134;-80
2022/10/09 05:26:52;;;;;;;18.67;8.55;;;8.00;99.90;;;;;;5152688;27;20047;-80
2022/10/09 05:29:18;;;;;;;20.73;9.05;;;7.90;99.90;;;;;;5152454;27;20099;-80
2022/10/09 05:31:44;;;;;;;22.52;10.20;;;7.90;99.90;;;;;;5152365;27;20121;-80
2022/10/09 05:34:10;;;;;;;29.90;12.05;;;7.90;99.90;;;;;;5152622;27;20405;-80
2022/10/09 05:36:36;;;;;;;18.77;9.88;;;7.90;99.90;;;;;;5116877;27;20490;-80
2022/10/09 05:39:02;;;;;;;24.13;11.45;;;8.00;99.90;;;;;;5152183;27;20130;-80
2022/10/09 05:41:29;;;;;;;26.17;10.98;;;8.00;99.90;;;;;;5133732;27;20524;-80
2022/10/09 05:44:00;;;;;;;27.23;11.88;;;7.90;99.90;;;;;;5152651;27;20054;-80
2022/10/09 05:46:27;;;;;;;20.48;9.45;;;7.90;99.90;;;;;;5152186;27;20054;-80
2022/10/09 05:49:04;;;;;;;23.42;10.77;;;7.90;99.90;;;;;;5152282;27;20446;-80
2022/10/09 05:51:32;;;;;;;17.40;10.05;;;7.90;99.90;;;;;;5133769;27;20546;-80
2022/10/09 05:54:00;;;;;;;19.27;8.88;;;7.80;99.90;;;;;;5152194;27;20498;-80
2022/10/09 05:56:30;;;;;;;17.67;10.43;;;7.80;99.90;;;;;;5135680;27;20129;-80
2022/10/09 05:59:01;;;;;;;20.98;9.40;;;7.80;99.90;;;;;;5137346;27;20134;-80
2022/10/09 06:01:33;;;;;;;18.02;8.65;;;7.80;99.90;;;;;;5156531;27;20526;-80
2022/10/09 06:04:00;;;;;;;24.58;10.93;;;7.80;99.90;;;;;;5138521;27;20099;-80
2022/10/09 06:06:28;;;;;;;23.98;11.15;;;7.80;99.90;;;;;;5137359;27;20133;-80
2022/10/09 06:08:55;;;;;;;18.85;10.45;;;7.70;99.90;;;;;;5156182;27;20179;-80
2022/10/09 06:11:27;;;;;;;18.60;10.75;;;7.70;99.90;;;;;;5156231;27;20065;-79
2022/10/09 06:13:54;;;;;;;16.95;9.52;;;7.70;99.90;;;;;;5138782;27;20054;-78
2022/10/09 06:16:23;;;;;;;19.63;10.23;;;7.70;99.90;;;;;;5136922;27;20054;-81
2022/10/09 06:18:49;;;;;;;23.90;11.15;;;7.70;99.90;;;;;;5119925;27;20051;-79
2022/10/09 06:21:15;;;;;;;18.73;10.70;;;7.70;99.90;;;;;;5155865;27;20047;-79
2022/10/09 06:23:42;;;;;;;24.48;10.65;;;7.70;99.90;;;;;;5155822;27;20073;-80
2022/10/09 06:26:11;;;;;;;18.83;9.68;;;7.70;99.90;;;;;;5136825;27;20054;-80
2022/10/09 06:28:37;;;;;;;18.17;9.10;;;7.70;99.90;;;;;;5136606;27;20055;-80
2022/10/09 06:31:14;;;;;;;17.15;8.60;;;7.80;99.90;;;;;;5155306;27;20051;-79
2022/10/09 06:33:42;;;;;;;14.85;8.90;;;7.80;99.90;;;;;;5155642;27;20051;-80
2022/10/09 06:36:10;;;;;;;20.60;9.18;;;7.80;99.90;;;;;;5155663;27;20047;-80
2022/10/09 06:38:37;;;;;;;18.25;8.95;;;7.80;99.90;;;;;;5136398;27;20050;-80
2022/10/09 06:41:05;;;;;;;17.95;9.43;;;7.80;99.90;;;;;;5155233;27;20058;-80
2022/10/09 06:43:31;;;;;;;17.70;8.95;;;7.90;99.90;;;;;;5136498;27;20051;-80
2022/10/09 06:46:03;;;;;;;20.30;8.30;;;8.00;99.90;;;;;;5136560;27;20068;-79
2022/10/09 06:48:30;;;;;;;17.10;9.90;;;8.00;99.90;;;;;;5136558;27;20046;-80
2022/10/09 06:51:17;;;;;;;17.70;9.50;;;8.10;99.90;;;;;;5136927;27;20059;-80
2022/10/09 06:53:46;;;;;;;20.33;9.32;;;8.20;99.90;;;;;;5119900;27;20054;-78
2022/10/09 06:56:14;;;;;;;19.00;8.45;;;8.20;99.90;;;;;;5155772;27;20053;-80
2022/10/09 06:58:40;;;;;;;16.73;8.70;;;8.30;99.90;;;;;;5154847;27;20043;-81
2022/10/09 07:01:10;;;;;;;15.77;9.23;;;8.30;99.90;;;;;;5136543;27;20054;-80
2022/10/09 07:03:39;;;;;;;20.02;7.95;;;8.40;99.90;;;;;;5136919;27;20046;-80
2022/10/09 07:06:17;;;;;;;14.80;7.90;;;8.40;99.90;;;;;;5155468;27;20050;-79
2022/10/09 07:08:45;;;;;;;13.18;8.55;;;8.50;99.90;;;;;;5155568;27;20049;-81
2022/10/09 07:11:12;;;;;;;16.48;7.03;;;8.60;99.90;;;;;;5136631;27;20053;-81
2022/10/09 07:13:40;;;;;;;19.60;7.70;;;8.70;99.90;;;;;;5154981;27;20054;-81
2022/10/09 07:16:06;;;;;;;16.60;7.93;;;8.80;99.90;;;;;;5136602;27;20058;-81
2022/10/09 07:18:33;;;;;;;17.40;7.60;;;8.90;99.90;;;;;;5154977;27;20683;-81
2022/10/09 07:21:01;;;;;;;16.35;8.82;;;9.00;99.90;;;;;;5118936;27;20133;-81
2022/10/09 07:23:28;;;;;;;14.82;7.43;;;9.10;99.90;;;;;;5154543;27;20505;-81
2022/10/09 07:25:54;;;;;;;12.98;6.45;;;9.20;99.90;;;;;;5136160;27;20058;-81
2022/10/09 07:28:20;;;;;;;17.10;7.05;;;9.20;99.90;;;;;;5153165;27;20075;-81
2022/10/09 07:30:46;;;;;;;11.75;6.60;;;9.30;99.90;;;;;;5136102;27;20062;-81
2022/10/09 07:33:12;;;;;;;14.65;6.00;;;9.40;99.90;;;;;;5155138;27;20043;-81
2022/10/09 07:35:37;;;;;;;13.80;5.60;;;9.40;99.90;;;;;;5155013;27;20375;-81
2022/10/09 07:38:04;;;;;;;17.35;6.82;;;9.50;99.90;;;;;;5135398;27;20054;-81
2022/10/09 07:40:33;;;;;;;11.52;5.75;;;9.60;99.90;;;;;;5154316;27;20410;-81
2022/10/09 07:42:59;;;;;;;12.73;5.90;;;9.60;99.90;;;;;;5135894;27;20042;-82
2022/10/09 07:45:25;;;;;;;11.55;6.07;;;9.70;99.90;;;;;;5118631;27;20058;-80
2022/10/09 07:47:51;;;;;;;12.00;6.10;;;9.70;99.90;;;;;;5135651;27;20043;-81
2022/10/09 07:50:17;;;;;;;9.68;5.57;;;9.70;99.90;;;;;;5154274;27;20167;-80
2022/10/09 07:52:43;;;;;;;16.45;6.10;;;9.80;99.90;;;;;;5155274;27;20625;-80
2022/10/09 07:55:08;;;;;;;16.13;6.70;;;9.80;99.90;;;;;;5154365;27;20057;-80
2022/10/09 07:57:34;;;;;;;15.52;6.97;;;9.90;99.90;;;;;;5154288;27;20042;-80
2022/10/09 08:00:00;;;;;;;13.95;5.43;;;9.90;99.90;;;;;;5154194;27;20505;-80
2022/10/09 08:02:26;;;;;;;15.75;6.90;;;10.00;99.90;;;;;;5135870;27;20054;-81
2022/10/09 08:04:53;;;;;;;14.73;6.07;;;10.00;99.90;;;;;;5136232;27;20059;-81
2022/10/09 08:07:19;;;;;;;15.15;5.65;;;10.10;99.90;;;;;;5153017;27;20129;-81
2022/10/09 08:09:45;;;;;;;12.40;5.63;;;10.10;99.90;;;;;;5135048;27;20054;-82
2022/10/09 08:12:11;;;;;;;17.02;5.88;;;10.20;99.90;;;;;;5153842;27;20552;-81
2022/10/09 08:14:37;;;;;;;13.30;5.82;;;10.20;99.90;;;;;;5154228;27;20459;-81
2022/10/09 08:17:03;;;;;;;11.20;4.80;;;10.30;99.90;;;;;;5153978;27;20042;-80
2022/10/09 08:19:29;;;;;;;14.55;5.38;;;10.40;99.90;;;;;;5153099;27;20130;-80
2022/10/09 08:21:55;;;;;;;12.88;5.65;;;10.40;99.90;;;;;;5153410;27;20133;-80
2022/10/09 08:24:21;;;;;;;15.00;4.43;;;10.50;99.90;;;;;;5153424;27;20129;-81
2022/10/09 08:26:47;;;;;;;11.38;5.18;;;10.60;99.90;;;;;;5153652;27;20072;-78
2022/10/09 08:29:14;;;;;;;23.40;5.18;;;10.70;99.90;;;;;;5153309;27;20075;-80
2022/10/09 08:31:40;;;;;;;14.15;4.40;;;10.80;99.90;;;;;;5153328;27;20089;-80
2022/10/09 08:34:06;;;;;;;10.57;4.40;;;10.90;99.90;;;;;;5153025;27;20566;-81
2022/10/09 08:36:32;;;;;;;12.55;4.78;;;11.00;99.90;;;;;;5134446;27;20039;-81
2022/10/09 08:38:58;;;;;;;18.33;4.60;;;11.00;99.90;;;;;;5153187;27;20054;-80
2022/10/09 08:41:42;;;;;;;12.50;4.50;;;11.10;99.90;;;;;;5153102;27;20107;-80
2022/10/09 08:44:24;;;;;;;12.93;4.65;;;11.20;99.90;;;;;;5152845;27;20051;-79
2022/10/09 08:47:08;;;;;;;8.95;4.15;;;11.40;99.90;;;;;;5152779;27;20046;-80
2022/10/09 08:50:04;;;;;;;11.10;3.67;;;11.50;99.90;;;;;;5152795;27;20047;-81
2022/10/09 08:52:54;;;;;;;11.82;4.30;;;11.60;99.90;;;;;;5152730;27;20051;-80
2022/10/09 08:55:24;;;;;;;11.60;4.13;;;11.70;99.90;;;;;;5151616;27;20194;-80
2022/10/09 08:57:56;;;;;;;11.82;4.07;;;11.80;99.90;;;;;;5135455;27;20085;-80
2022/10/09 09:00:33;;;;;;;8.82;3.85;;;12.00;99.90;;;;;;5153258;27;20134;-80
2022/10/09 09:03:12;;;;;;;10.35;3.83;;;12.10;99.90;;;;;;5117632;27;20051;-80
2022/10/09 09:05:52;;;;;;;14.57;4.38;;;12.20;99.90;;;;;;5117194;27;20110;-80
2022/10/09 09:08:29;;;;;;;11.80;4.13;;;12.30;99.90;;;;;;5134073;27;20054;-80
2022/10/09 09:11:12;;;;;;;17.58;3.70;;;12.40;99.90;;;;;;5153068;27;20050;-80
2022/10/09 09:13:58;;;;;;;13.45;3.92;;;12.50;99.90;;;;;;5133941;27;20051;-80
2022/10/09 09:16:35;;;;;;;11.68;3.60;;;12.60;99.90;;;;;;5152768;27;20138;-80
2022/10/09 09:19:16;;;;;;;9.57;3.47;;;12.70;99.90;;;;;;5134083;27;20046;-81
2022/10/09 09:21:44;;;;;;;7.20;3.08;;;12.80;99.90;;;;;;5133906;27;20596;-80
2022/10/09 09:24:27;;;;;;;8.77;3.28;;;12.90;99.90;;;;;;5134150;27;20050;-80
2022/10/09 09:26:58;;;;;;;14.80;3.50;;;13.00;99.90;;;;;;5134242;27;20129;-80
2022/10/09 09:29:25;;;;;;;6.45;2.88;;;13.00;99.90;;;;;;5116799;27;20086;-81
2022/10/09 09:32:00;;;;;;;9.05;2.38;;;13.10;99.90;;;;;;5155335;27;20095;-81
2022/10/09 09:34:33;;;;;;;;;;;13.20;99.90;;;;;;5139101;27;20405;-81
2022/10/09 09:37:00;;;;;;;8.55;3.05;;;13.20;99.90;;;;;;5157774;27;19919;-81
2022/10/09 09:39:29;;;;;;;11.48;2.28;;;13.30;99.90;;;;;;5138637;27;20144;-80
2022/10/09 09:42:01;;;;;;;11.13;2.65;;;13.40;99.90;;;;;;5139513;27;20521;-81
2022/10/09 09:44:30;;;;;;;7.70;2.33;;;13.60;99.90;;;;;;5157206;27;20111;-81
2022/10/09 09:46:56;;;;;;;6.95;2.00;;;13.70;99.90;;;;;;5138093;27;20746;-81
2022/10/09 09:49:28;;;;;;;11.20;2.78;;;13.70;99.90;;;;;;5156206;27;20050;-81
2022/10/09 09:51:59;;;;;;;19.08;3.25;;;13.90;99.90;;;;;;5156648;27;20541;-80
2022/10/09 09:54:28;;;;;;;11.60;3.17;;;14.00;99.90;;;;;;5138212;27;20047;-82
2022/10/09 09:56:57;;;;;;;13.68;4.00;;;14.10;99.90;;;;;;5156450;27;20039;-81
2022/10/09 09:59:34;;;;;;;9.07;3.00;;;14.20;99.90;;;;;;5137843;27;20058;-80
2022/10/09 10:02:16;;;;;;;12.02;2.35;;;14.40;99.90;;;;;;5156513;27;20089;-83
2022/10/09 10:04:53;;;;;;;7.05;2.47;;;14.60;99.90;;;;;;5137714;27;20121;-80
2022/10/09 10:07:36;;;;;;;6.03;1.85;;;14.60;99.90;;;;;;5156590;27;20050;-80
2022/10/09 10:10:14;;;;;;;7.85;2.15;;;14.70;99.90;;;;;;5137968;27;20050;-80
2022/10/09 10:12:43;;;;;;;11.40;1.85;;;14.80;99.90;;;;;;5138583;27;20516;-79
2022/10/09 10:15:46;;;;;;;6.38;1.67;;;14.80;99.90;;;;;;5157641;27;20055;-80
2022/10/09 10:18:15;;;;;;;11.43;1.83;;;15.10;99.90;;;;;;5140771;27;20213;-80
2022/10/09 10:20:46;;;;;;;10.38;1.77;;;15.40;99.90;;;;;;5138405;27;20126;-79
2022/10/09 10:23:33;;;;;;;14.43;1.88;;;15.70;99.90;;;;;;5156422;27;20516;-79
2022/10/09 10:26:04;;;;;;;12.70;1.90;;;15.70;99.90;;;;;;5137245;27;20095;-80
2022/10/09 10:28:38;;;;;;;9.95;2.17;;;15.70;99.90;;;;;;5137338;27;20054;-80
2022/10/09 10:31:05;;;;;;;;;;;15.70;99.90;;;;;;5156518;27;20057;-80
2022/10/09 10:33:35;;;;;;;9.13;1.60;;;15.70;99.90;;;;;;5155913;27;20312;-80
2022/10/09 10:36:00;;;;;;;8.70;1.77;;;15.70;99.90;;;;;;5137050;27;20398;-80
2022/10/09 10:38:45;;;;;;;7.90;2.00;;;15.70;99.90;;;;;;5155572;27;20046;-79
2022/10/09 10:41:29;;;;;;;6.30;1.48;;;15.80;99.90;;;;;;5136582;27;20042;-80
2022/10/09 10:44:06;;;;;;;5.05;1.50;;;15.80;99.90;;;;;;5155679;27;20401;-79
2022/10/09 10:47:05;;;;;;;8.98;1.63;;;15.90;99.90;;;;;;5137597;27;20050;-80
2022/10/09 10:49:31;;;;;;;7.88;1.88;;;15.80;99.90;;;;;;5136129;27;20039;-79
2022/10/09 10:52:16;;;;;;;12.43;2.25;;;15.90;99.90;;;;;;5155723;27;20058;-79
2022/10/09 10:54:52;;;;;;;11.10;1.85;;;16.10;99.90;;;;;;5155317;27;20551;-80
2022/10/09 10:57:28;;;;;;;10.70;1.60;;;16.70;99.90;;;;;;5155124;27;20459;-80
2022/10/09 11:00:07;;;;;;;5.65;1.48;;;16.80;99.90;;;;;;5154843;27;20095;-79
2022/10/09 11:02:54;;;;;;;7.30;1.52;;;17.20;99.90;;;;;;5155070;27;20458;-79
2022/10/09 11:05:26;;;;;;;9.25;2.10;;;17.40;99.90;;;;;;5119493;27;20092;-79
2022/10/09 11:08:29;;;;;;;12.63;2.03;;;17.80;99.90;;;;;;5154748;27;20061;-80
2022/10/09 11:11:20;;;;;;;9.45;1.70;;;18.10;99.90;;;;;;5154998;27;20050;-79
2022/10/09 11:13:58;;;;;;;7.68;1.70;;;18.40;99.90;;;;;;5154976;27;20055;-79
2022/10/09 11:17:08;;;;;;;7.45;1.50;;;18.80;99.90;;;;;;5136365;27;20465;-79
2022/10/09 11:19:51;;;;;;;6.82;2.00;;;19.10;99.30;;;;;;5110477;27;20054;-79
2022/10/09 11:22:42;;;;;;;7.88;1.70;;;19.00;99.00;;;;;;5154949;27;20117;-79
2022/10/09 11:25:17;;;;;;;7.97;1.50;;;19.00;97.30;;;;;;5136413;27;20209;-79
2022/10/09 11:27:45;;;;;;;;;;;19.30;98.60;;;;;;5136069;27;20127;-79
2022/10/09 11:30:17;;;;;;;7.93;1.67;;;19.20;97.40;;;;;;5154459;27;20080;-79
2022/10/09 11:32:58;;;;;;;4.10;1.30;;;19.70;98.40;;;;;;5154628;27;20043;-79
2022/10/09 11:35:28;;;;;;;5.32;1.73;;;20.30;96.80;;;;;;5152850;27;20093;-78
2022/10/09 11:38:06;;;;;;;7.70;1.40;;;21.10;95.90;;;;;;5139812;27;20095;-79
2022/10/09 11:40:40;;;;;;;9.18;1.63;;;22.10;94.60;;;;;;5133776;27;20397;-80
2022/10/09 11:43:13;;;;;;;8.48;1.70;;;22.30;92.80;;;;;;5132089;27;20108;-80
2022/10/09 11:45:49;;;;;;;7.18;1.00;;;22.90;92.10;;;;;;5132412;27;20082;-81
2022/10/09 11:48:48;;;;;;;7.68;1.77;;;23.70;91.30;;;;;;5133217;27;20391;-79
2022/10/09 11:51:32;;;;;;;6.28;1.30;;;24.30;88.00;;;;;;5129185;27;20043;-79
2022/10/09 11:54:00;;;;;;;9.20;1.73;;;24.50;84.70;;;;;;5132587;27;20558;-81
2022/10/09 11:56:31;;;;;;;8.32;1.83;;;25.40;84.90;;;;;;5133230;27;20061;-80
2022/10/09 11:58:59;;;;;;;10.55;2.00;;;25.60;80.70;;;;;;5133293;27;20364;-79
2022/10/09 12:01:35;;;;;;;8.18;1.75;;;25.60;78.20;;;;;;5133274;27;20051;-79
2022/10/09 12:04:08;;;;;;;10.35;1.75;;;26.10;77.40;;;;;;5131700;27;20402;-80
2022/10/09 12:07:06;;;;;;;9.27;1.70;;;26.00;77.70;;;;;;5131908;27;20051;-79
2022/10/09 12:09:40;;;;;;;5.18;1.52;;;26.20;75.70;;;;;;5116896;27;20058;-80
2022/10/09 12:12:19;;;;;;;16.20;2.33;;;26.60;75.10;;;;;;5132990;27;20089;-81
2022/10/09 12:14:48;;;;;;;8.43;1.55;;;27.00;72.00;;;;;;5114459;27;20050;-79
2022/10/09 12:17:37;;;;;;;7.63;1.45;;;26.90;71.80;;;;;;5131521;27;20092;-79
2022/10/09 12:20:04;;;;;;;7.05;1.75;;;27.00;67.40;;;;;;5132698;27;20058;-80
2022/10/09 12:22:42;;;;;;;7.80;1.38;;;27.10;70.00;;;;;;5131244;27;20772;-79
2022/10/09 12:25:29;;;;;;;5.38;1.40;;;27.50;66.40;;;;;;5131389;27;20059;-78
2022/10/09 12:27:57;;;;;;;7.85;2.28;;;27.70;63.80;;;;;;5131481;27;20043;-79
2022/10/09 12:30:39;;;;;;;8.40;1.20;;;28.10;64.40;;;;;;5148856;27;20083;-80
2022/10/09 12:33:13;;;;;;;6.63;1.17;;;28.30;62.30;;;;;;5132514;27;20126;-80
2022/10/09 12:35:43;;;;;;;8.13;1.75;;;27.90;61.20;;;;;;5132669;27;20075;-79
2022/10/09 12:38:25;;;;;;;8.20;1.63;;;27.80;62.80;;;;;;5148475;27;20050;-79
2022/10/09 12:40:52;;;;;;;5.15;1.73;;;27.50;62.50;;;;;;5153218;27;20051;-80
2022/10/09 12:43:22;;;;;;;5.50;1.23;;;27.60;63.20;;;;;;5153231;27;20053;-80
2022/10/09 12:45:50;;;;;;;5.47;1.50;;;27.70;61.70;;;;;;5153235;27;20129;-78
2022/10/09 12:48:20;;;;;;;5.90;1.20;;;27.70;62.10;;;;;;5152846;27;20051;-80
2022/10/09 12:50:47;;;;;;;6.28;1.38;;;27.70;61.90;;;;;;5134224;27;20102;-80
2022/10/09 12:53:17;;;;;;;5.50;1.33;;;28.10;62.40;;;;;;5153287;27;20046;-80
2022/10/09 12:55:54;;;;;;;8.27;1.75;;;28.40;62.20;;;;;;5153081;27;20043;-79
2022/10/09 12:58:22;;;;;;;9.77;1.98;;;28.50;60.70;;;;;;5134373;27;20057;-80
2022/10/09 13:00:50;;;;;;;5.82;1.20;;;28.30;61.00;;;;;;5134037;27;20050;-79
2022/10/09 13:03:33;;;;;;;6.80;1.30;;;28.30;60.50;;;;;;5134200;27;20046;-81
2022/10/09 13:06:01;;;;;;;9.60;1.40;;;28.00;58.70;;;;;;5153292;27;20063;-80